PAGY/SGY METAR and TAF weather

Enter ICAO airport designator
Station Type Date Time Source
PAGY METAR 2022/06/29 09:53 UTC NOAA

PAGY 290953Z AUTO 00000KT 10SM CLR 16/11 A2994 RMK AO2 SLP137 T01610106 TSNO $


Station Type Date Time Source
PAGY Decoded METAR 2022/06/29 09:53 UTC NOAA

SKAGWAY AIRPORT, AK, United States (PAGY) 59-28N 135-19W 5M
Jun 29, 2022 - 05:53 AM EDT / 2022.06.29 0953 UTC
Wind: Calm:0
Visibility: 10 mile(s):0
Sky conditions: clear
Temperature: 61.0 F (16.1 C)
Dew Point: 51.1 F (10.6 C)
Relative Humidity: 69%
Pressure (altimeter): 29.94 in. Hg (1013 hPa)
ob: PAGY 290953Z AUTO 00000KT 10SM CLR 16/11 A2994 RMK AO2 SLP137 T01610106 TSNO
cycle: 10

Station Type Date Time Source
PAGY TAF 2022/06/30 18:40 UTC NOAA

TAF PAGY 301738Z 3018/0118 21010KT P6SM FEW025 OVC035
FM302300 21014KT P6SM SCT040
FM010400 VRB05KT P6SM FEW050
AMD LTD TO CLD VIS AND WIND

Example: see airport list